createdAt,value
2018-09-05T00:01:23.862Z,54.50
2018-09-05T00:02:59.452Z,58.75
2018-09-05T00:04:38.103Z,59.75
2018-09-05T00:06:13.377Z,55.00
2018-09-05T00:07:49.064Z,55.00
2018-09-05T00:09:26.999Z,55.00
2018-09-05T00:11:02.439Z,55.00
2018-09-05T00:12:37.820Z,56.50
2018-09-05T00:14:13.185Z,55.75
2018-09-05T00:15:48.844Z,54.00
2018-09-05T00:17:24.759Z,54.25
2018-09-05T00:19:00.630Z,54.00
2018-09-05T00:20:36.060Z,51.00
2018-09-05T00:22:18.860Z,58.25
2018-09-05T00:23:54.156Z,54.00
2018-09-05T00:25:29.840Z,55.50
2018-09-05T00:27:05.563Z,54.00
2018-09-05T00:28:41.253Z,66.50
2018-09-05T00:30:18.231Z,53.50
2018-09-05T00:31:54.172Z,55.25
2018-09-05T00:33:29.520Z,53.75
2018-09-05T00:35:05.484Z,52.75
2018-09-05T00:36:40.811Z,56.00
2018-09-05T00:38:16.119Z,51.75
2018-09-05T00:39:51.421Z,47.75
2018-09-05T00:41:27.302Z,49.25
2018-09-05T00:43:02.804Z,52.00
2018-09-05T00:44:38.085Z,49.75
2018-09-05T00:46:13.360Z,54.75
2018-09-05T00:47:48.583Z,55.00
2018-09-05T00:49:23.828Z,51.75
2018-09-05T00:51:00.133Z,48.50
2018-09-05T00:52:35.353Z,50.25
2018-09-05T00:54:11.364Z,50.00
2018-09-05T00:55:47.522Z,51.00
2018-09-05T00:57:22.814Z,60.50
2018-09-05T00:58:58.159Z,57.50
2018-09-05T01:00:33.892Z,52.50
2018-09-05T01:02:09.177Z,57.75
2018-09-05T01:03:44.567Z,55.50
2018-09-05T01:05:20.100Z,55.00
2018-09-05T01:06:55.915Z,57.75
2018-09-05T01:08:31.150Z,61.25
2018-09-05T01:10:06.763Z,55.50
2018-09-05T01:11:42.083Z,57.50
2018-09-05T01:13:17.923Z,61.25
2018-09-05T01:14:54.617Z,57.50
2018-09-05T01:16:29.949Z,64.50
2018-09-05T01:18:05.379Z,56.75
2018-09-05T01:19:41.141Z,61.00
2018-09-05T01:21:16.653Z,56.75
2018-09-05T01:22:53.480Z,60.00
2018-09-05T01:24:28.672Z,56.00
2018-09-05T01:26:04.501Z,56.25
2018-09-05T01:27:40.146Z,53.00
2018-09-05T01:29:15.389Z,55.00
2018-09-05T01:30:51.313Z,54.50
2018-09-05T01:32:26.727Z,49.00
2018-09-05T01:34:01.954Z,56.25
2018-09-05T01:35:37.262Z,53.75
2018-09-05T01:37:12.992Z,59.50
2018-09-05T01:38:48.347Z,57.00
2018-09-05T01:40:23.610Z,53.00
2018-09-05T01:41:58.965Z,50.00
2018-09-05T01:43:36.023Z,51.00
2018-09-05T01:45:15.077Z,55.75
2018-09-05T01:46:50.946Z,56.00
2018-09-05T01:48:26.360Z,56.75
2018-09-05T01:50:02.249Z,55.00
2018-09-05T01:51:37.931Z,60.75
2018-09-05T01:53:13.777Z,59.00
2018-09-05T01:54:49.348Z,59.50
2018-09-05T01:56:24.573Z,57.50
2018-09-05T01:57:59.913Z,56.50
2018-09-05T01:59:35.356Z,61.00
2018-09-05T02:01:10.708Z,59.00
2018-09-05T02:02:46.451Z,58.50
2018-09-05T02:04:22.009Z,56.50
2018-09-05T02:05:57.454Z,60.00
2018-09-05T02:07:32.805Z,60.50
2018-09-05T02:09:12.805Z,55.75
2018-09-05T02:10:48.152Z,56.75
2018-09-05T02:12:23.542Z,54.50
2018-09-05T02:14:00.327Z,54.25
2018-09-05T02:15:36.145Z,55.25
2018-09-05T02:17:11.581Z,57.00
2018-09-05T02:18:46.813Z,58.75
2018-09-05T02:20:23.113Z,56.50
2018-09-05T02:21:59.502Z,55.00
2018-09-05T02:23:35.488Z,56.00
2018-09-05T02:25:11.439Z,52.00
2018-09-05T02:26:46.721Z,52.25
2018-09-05T02:28:22.483Z,49.00
2018-09-05T02:29:57.856Z,56.50
2018-09-05T02:31:33.287Z,52.75
2018-09-05T02:33:09.282Z,55.50
2018-09-05T02:34:46.658Z,51.75
2018-09-05T02:36:21.986Z,56.00
2018-09-05T02:37:58.263Z,51.50
2018-09-05T02:39:33.574Z,52.50
2018-09-05T02:41:09.398Z,55.00
2018-09-05T02:42:44.950Z,51.50
2018-09-05T02:44:21.692Z,54.25
2018-09-05T02:45:57.213Z,52.00
2018-09-05T02:47:32.981Z,56.00
2018-09-05T02:49:10.064Z,51.25
2018-09-05T02:50:45.478Z,54.75
2018-09-05T02:52:20.903Z,53.50
2018-09-05T02:53:58.451Z,56.50
2018-09-05T02:55:40.124Z,58.25
2018-09-05T02:57:16.100Z,56.75
2018-09-05T02:58:53.778Z,54.00
2018-09-05T03:00:29.520Z,58.25
2018-09-05T03:02:05.495Z,53.50
2018-09-05T03:03:40.813Z,54.00
2018-09-05T03:05:16.161Z,55.00
2018-09-05T03:06:51.793Z,53.25
2018-09-05T03:08:27.139Z,55.75
2018-09-05T03:10:02.444Z,55.75
2018-09-05T03:11:37.763Z,55.50
2018-09-05T03:13:15.007Z,55.00
2018-09-05T03:14:51.885Z,55.25
2018-09-05T03:16:27.216Z,58.75
2018-09-05T03:18:02.827Z,51.75
2018-09-05T03:19:40.026Z,54.75
2018-09-05T03:21:17.863Z,54.25
2018-09-05T03:22:53.734Z,52.50
2018-09-05T03:24:29.582Z,56.25
2018-09-05T03:26:04.939Z,56.00
2018-09-05T03:27:40.366Z,60.25
2018-09-05T03:29:16.359Z,59.50
2018-09-05T03:30:52.045Z,59.50
2018-09-05T03:32:27.564Z,59.00
2018-09-05T03:34:03.537Z,58.25
2018-09-05T03:35:38.857Z,59.50
2018-09-05T03:37:16.122Z,60.00
2018-09-05T03:38:52.379Z,56.00
2018-09-05T03:40:28.264Z,55.00
2018-09-05T03:42:04.293Z,52.50
2018-09-05T03:43:40.155Z,57.00
2018-09-05T03:45:16.947Z,54.50
2018-09-05T03:46:52.284Z,56.75
2018-09-05T03:48:27.591Z,57.00
2018-09-05T03:50:03.292Z,57.25
2018-09-05T03:51:39.255Z,57.50
2018-09-05T03:53:14.902Z,57.50
2018-09-05T03:54:50.237Z,55.50
2018-09-05T03:56:25.902Z,55.00
2018-09-05T03:58:01.161Z,55.25
2018-09-05T03:59:36.464Z,56.50
2018-09-05T04:01:11.805Z,62.25
2018-09-05T04:02:47.650Z,57.25
2018-09-05T04:04:23.356Z,52.00
2018-09-05T04:05:58.597Z,52.00
2018-09-05T04:07:33.827Z,55.00
2018-09-05T04:09:10.290Z,49.00
2018-09-05T04:10:45.567Z,56.75
2018-09-05T04:12:21.001Z,55.25
2018-09-05T04:13:57.149Z,56.50
2018-09-05T04:15:32.843Z,54.00
2018-09-05T04:17:08.633Z,51.75
2018-09-05T04:18:44.082Z,49.75
2018-09-05T04:20:20.301Z,52.50
2018-09-05T04:21:55.544Z,59.00
2018-09-05T04:23:37.507Z,55.25
2018-09-05T04:25:12.883Z,57.50
2018-09-05T04:26:48.485Z,55.50
2018-09-05T04:28:24.200Z,54.50
2018-09-05T04:30:00.527Z,54.25
2018-09-05T04:31:38.774Z,52.00
2018-09-05T04:33:15.707Z,54.75
2018-09-05T04:34:50.972Z,55.50
2018-09-05T04:36:26.267Z,58.75
2018-09-05T04:38:01.479Z,50.50
2018-09-05T04:39:37.058Z,52.75
2018-09-05T04:41:12.899Z,54.00
2018-09-05T04:42:48.237Z,57.75
2018-09-05T04:44:23.907Z,55.75
2018-09-05T04:46:05.797Z,57.75
2018-09-05T04:47:41.822Z,55.00
2018-09-05T04:49:20.217Z,54.00
2018-09-05T04:50:55.359Z,58.00
2018-09-05T04:52:35.966Z,55.50
2018-09-05T04:54:11.548Z,57.00
2018-09-05T04:55:47.034Z,54.75
2018-09-05T04:57:24.891Z,55.25
2018-09-05T04:59:01.275Z,53.00
2018-09-05T05:00:37.358Z,57.25
2018-09-05T05:02:13.543Z,60.25
2018-09-05T05:03:48.789Z,55.25
2018-09-05T05:05:24.478Z,54.50
2018-09-05T05:06:59.876Z,54.25
2018-09-05T05:08:35.113Z,55.00
2018-09-05T05:10:12.066Z,53.75
2018-09-05T05:11:48.365Z,52.50
2018-09-05T05:13:23.559Z,54.25
2018-09-05T05:14:58.933Z,53.75
2018-09-05T05:16:34.317Z,55.25
2018-09-05T05:18:09.725Z,55.50
2018-09-05T05:19:45.016Z,56.00
2018-09-05T05:21:26.683Z,50.00
2018-09-05T05:23:01.937Z,54.50
2018-09-05T05:24:38.307Z,49.75
2018-09-05T05:26:14.455Z,50.75
2018-09-05T05:27:49.645Z,58.25
2018-09-05T05:29:25.189Z,59.50
2018-09-05T05:31:00.948Z,51.00
2018-09-05T05:32:36.290Z,49.25
2018-09-05T05:34:12.977Z,52.00
2018-09-05T05:35:50.249Z,47.50
2018-09-05T05:37:28.728Z,52.25
2018-09-05T05:39:04.930Z,48.00
2018-09-05T05:40:41.200Z,49.00
2018-09-05T05:42:16.393Z,52.00
2018-09-05T05:43:52.804Z,48.25
2018-09-05T05:45:28.012Z,49.25
2018-09-05T05:47:03.496Z,54.25
2018-09-05T05:48:38.869Z,56.00
2018-09-05T05:50:14.405Z,52.75
2018-09-05T05:51:49.728Z,52.00
2018-09-05T05:53:25.039Z,54.00
2018-09-05T05:55:00.664Z,52.50
2018-09-05T05:56:36.291Z,57.50
2018-09-05T05:58:12.550Z,52.00
2018-09-05T05:59:48.725Z,50.00
2018-09-05T06:01:24.406Z,50.75
2018-09-05T06:03:01.006Z,45.25
2018-09-05T06:04:36.264Z,48.50
2018-09-05T06:06:11.859Z,48.50
2018-09-05T06:07:47.182Z,50.75
2018-09-05T06:09:26.987Z,53.25
2018-09-05T06:11:02.603Z,52.25
2018-09-05T06:12:38.831Z,55.25
2018-09-05T06:14:14.620Z,50.50
2018-09-05T06:15:50.078Z,50.50
2018-09-05T06:17:25.404Z,54.25
2018-09-05T06:19:09.256Z,51.50
2018-09-05T06:21:02.161Z,56.75
2018-09-05T06:23:01.648Z,56.00
2018-09-05T06:25:13.257Z,57.00
2018-09-05T06:26:49.501Z,55.00
2018-09-05T06:28:24.773Z,62.75
2018-09-05T06:30:00.956Z,57.25
2018-09-05T06:31:37.833Z,54.25
2018-09-05T06:33:24.810Z,56.75
2018-09-05T06:35:00.153Z,60.00
2018-09-05T06:36:45.615Z,58.00
2018-09-05T06:38:29.920Z,59.25
2018-09-05T06:40:15.374Z,61.00
2018-09-05T06:42:06.555Z,61.25
2018-09-05T06:43:57.630Z,62.25
2018-09-05T06:45:36.106Z,59.25
2018-09-05T06:47:11.326Z,60.75
2018-09-05T06:48:49.038Z,58.00
2018-09-05T06:50:28.205Z,66.00
2018-09-05T06:52:05.469Z,61.75
2018-09-05T06:53:41.437Z,62.50
2018-09-05T06:55:22.739Z,58.50
2018-09-05T06:57:00.065Z,59.75
2018-09-05T06:58:49.994Z,61.25
2018-09-05T07:00:33.115Z,63.25
2018-09-05T07:02:10.294Z,61.50
2018-09-05T07:03:50.566Z,66.00
2018-09-05T07:05:26.322Z,62.00
2018-09-05T07:07:03.969Z,62.75
2018-09-05T07:08:43.815Z,59.00
2018-09-05T07:10:21.617Z,59.00
2018-09-05T07:11:57.623Z,58.25
2018-09-05T07:13:33.436Z,58.25
2018-09-05T07:15:14.969Z,59.00
2018-09-05T07:16:51.132Z,60.25
2018-09-05T07:18:28.254Z,61.00
2018-09-05T07:20:03.898Z,59.00
2018-09-05T07:21:44.492Z,59.00
2018-09-05T07:23:20.707Z,58.50
2018-09-05T07:24:57.703Z,60.50
2018-09-05T07:26:33.148Z,62.00
2018-09-05T07:28:10.036Z,60.25
2018-09-05T07:29:45.315Z,60.50
2018-09-05T07:31:21.986Z,60.00
2018-09-05T07:32:59.631Z,56.50
2018-09-05T07:34:36.944Z,61.25
2018-09-05T07:36:28.741Z,57.50
2018-09-05T07:38:05.211Z,61.00
2018-09-05T07:39:43.319Z,58.50
2018-09-05T07:41:19.544Z,57.75
2018-09-05T07:42:55.871Z,61.25
2018-09-05T07:44:33.701Z,62.75
2018-09-05T07:46:10.058Z,61.25
2018-09-05T07:47:45.485Z,59.75
2018-09-05T07:49:21.500Z,62.75
2018-09-05T07:50:58.062Z,62.25
2018-09-05T07:52:40.306Z,59.75
2018-09-05T07:54:16.343Z,63.00
2018-09-05T07:55:58.392Z,60.00
2018-09-05T07:57:36.389Z,61.25
2018-09-05T07:59:16.364Z,61.25
2018-09-05T08:00:58.964Z,61.75
2018-09-05T08:02:37.467Z,63.00
2018-09-05T08:04:13.665Z,61.50
2018-09-05T08:05:50.536Z,63.25
2018-09-05T08:07:27.500Z,62.75
2018-09-05T08:09:03.354Z,68.50
2018-09-05T08:10:39.309Z,61.00
2018-09-05T08:12:17.602Z,62.50
2018-09-05T08:13:52.919Z,60.75
2018-09-05T08:15:30.603Z,63.00
2018-09-05T08:17:07.001Z,60.50
2018-09-05T08:18:44.677Z,63.00
2018-09-05T08:20:21.797Z,62.50
2018-09-05T08:21:58.110Z,63.50
2018-09-05T08:23:33.772Z,62.00
2018-09-05T08:25:09.754Z,61.75
2018-09-05T08:26:47.389Z,64.25
2018-09-05T08:28:23.351Z,64.00
2018-09-05T08:30:01.242Z,61.00
2018-09-05T08:31:37.272Z,58.00
2018-09-05T08:33:13.779Z,60.00
2018-09-05T08:34:49.326Z,59.25
2018-09-05T08:36:25.572Z,56.00
2018-09-05T08:38:00.744Z,61.75
2018-09-05T08:39:36.366Z,64.00
2018-09-05T08:41:12.223Z,62.25
2018-09-05T08:42:49.295Z,58.50
2018-09-05T08:44:24.661Z,62.50
2018-09-05T08:46:00.609Z,57.75
2018-09-05T08:47:36.015Z,63.75
2018-09-05T08:49:12.536Z,56.50
2018-09-05T08:50:49.691Z,59.75
2018-09-05T08:52:25.279Z,59.50
2018-09-05T08:54:00.437Z,57.50
2018-09-05T08:55:35.708Z,61.00
2018-09-05T08:57:11.394Z,60.25
2018-09-05T08:58:47.227Z,59.50
2018-09-05T09:00:25.596Z,59.00
2018-09-05T09:02:01.790Z,59.75
2018-09-05T09:03:38.157Z,59.75
2018-09-05T09:05:13.840Z,55.00
2018-09-05T09:06:49.686Z,56.25
2018-09-05T09:08:27.496Z,53.25
2018-09-05T09:10:04.512Z,59.50
2018-09-05T09:11:41.291Z,53.00
2018-09-05T09:13:21.642Z,55.50
2018-09-05T09:14:59.378Z,51.00
2018-09-05T09:16:35.542Z,53.25
2018-09-05T09:18:11.565Z,53.00
2018-09-05T09:19:47.053Z,49.00
2018-09-05T09:21:25.437Z,50.75
2018-09-05T09:23:03.286Z,54.50
2018-09-05T09:24:38.801Z,52.75
2018-09-05T09:26:14.053Z,52.25
2018-09-05T09:27:49.564Z,54.25
2018-09-05T09:29:25.761Z,51.00
2018-09-05T09:31:08.223Z,50.25
2018-09-05T09:32:44.351Z,49.75
2018-09-05T09:34:22.159Z,52.75
2018-09-05T09:36:01.039Z,53.00
2018-09-05T09:37:38.286Z,51.00
2018-09-05T09:39:16.001Z,53.00
2018-09-05T09:40:51.870Z,49.00
2018-09-05T09:42:28.527Z,50.75
2018-09-05T09:44:04.424Z,52.00
2018-09-05T09:45:42.761Z,53.50
2018-09-05T09:47:21.753Z,50.00
2018-09-05T09:48:57.500Z,52.00
2018-09-05T09:50:41.916Z,52.75
2018-09-05T09:52:21.745Z,52.25
2018-09-05T09:53:57.595Z,48.25
2018-09-05T09:55:32.907Z,52.00
2018-09-05T09:57:10.735Z,51.00
2018-09-05T09:58:50.116Z,48.50
2018-09-05T10:00:35.134Z,50.00
2018-09-05T10:02:15.802Z,50.25
2018-09-05T10:04:04.194Z,51.00
2018-09-05T10:05:45.676Z,46.50
2018-09-05T10:09:31.799Z,44.00
2018-09-05T10:11:13.594Z,47.50
2018-09-05T10:12:54.291Z,44.00
2018-09-05T10:14:34.383Z,47.00
2018-09-05T10:16:16.624Z,47.75
2018-09-05T10:18:02.955Z,46.25
2018-09-05T10:19:40.910Z,46.50
2018-09-05T10:21:16.226Z,57.25
2018-09-05T10:22:51.898Z,46.00
2018-09-05T10:24:29.414Z,41.00
2018-09-05T10:26:04.819Z,45.75
2018-09-05T10:27:41.640Z,40.00
2018-09-05T10:29:17.365Z,44.00
2018-09-05T10:30:53.020Z,43.25
2018-09-05T10:32:28.495Z,44.75
2018-09-05T10:34:05.525Z,45.75
2018-09-05T10:35:41.613Z,43.00
2018-09-05T10:37:17.060Z,39.25
2018-09-05T10:38:59.085Z,46.00
2018-09-05T10:40:47.517Z,43.00
2018-09-05T10:42:30.505Z,42.25
2018-09-05T10:44:08.676Z,43.50
2018-09-05T10:45:44.995Z,45.25
2018-09-05T10:47:21.827Z,46.75
2018-09-05T10:48:57.729Z,48.00
2018-09-05T10:50:33.219Z,47.25
2018-09-05T10:52:12.742Z,47.75
2018-09-05T10:53:48.562Z,44.25
2018-09-05T10:55:24.128Z,39.00
2018-09-05T10:57:00.451Z,43.75
2018-09-05T10:58:36.273Z,46.00
2018-09-05T11:00:15.310Z,44.50
2018-09-05T11:01:55.234Z,41.75
2018-09-05T11:03:33.629Z,44.00
2018-09-05T11:05:10.196Z,41.00
2018-09-05T11:06:45.451Z,39.75
2018-09-05T11:08:23.076Z,41.75
2018-09-05T11:10:02.080Z,44.00
2018-09-05T11:11:46.384Z,39.50
2018-09-05T11:13:28.375Z,48.50
2018-09-05T11:15:11.239Z,49.00
2018-09-05T11:16:50.114Z,46.25
2018-09-05T11:18:26.404Z,52.50
2018-09-05T11:20:08.719Z,39.50
2018-09-05T11:21:52.290Z,35.00
2018-09-05T11:23:37.101Z,39.25
2018-09-05T11:27:06.570Z,37.50
2018-09-05T11:28:44.212Z,37.00
2018-09-05T11:30:21.463Z,38.75
2018-09-05T11:31:57.595Z,38.25
2018-09-05T11:33:33.434Z,36.00
2018-09-05T11:35:08.866Z,35.50
2018-09-05T11:36:44.268Z,36.50
2018-09-05T11:38:21.956Z,44.25
2018-09-05T11:40:06.546Z,45.25
2018-09-05T11:42:09.099Z,38.25
2018-09-05T11:44:41.956Z,39.75
2018-09-05T11:46:17.883Z,35.75
2018-09-05T11:47:54.707Z,38.50
2018-09-05T11:49:30.915Z,32.25
2018-09-05T11:51:06.853Z,37.00
2018-09-05T11:52:42.949Z,32.75
2018-09-05T11:54:19.863Z,37.50
2018-09-05T11:55:56.036Z,39.75
2018-09-05T11:57:32.281Z,39.50
2018-09-05T11:59:11.597Z,35.25
2018-09-05T12:00:53.905Z,37.00
2018-09-05T12:02:31.799Z,35.00
2018-09-05T12:04:20.470Z,35.75
2018-09-05T12:06:05.291Z,30.75
2018-09-05T12:07:47.274Z,41.50
2018-09-05T12:09:24.233Z,34.50
2018-09-05T12:11:00.398Z,40.25
2018-09-05T12:12:38.889Z,38.50
2018-09-05T12:14:17.602Z,42.25
2018-09-05T12:15:58.727Z,38.00
2018-09-05T12:17:59.878Z,44.75
2018-09-05T12:19:56.591Z,46.00
2018-09-05T12:21:50.754Z,50.25
2018-09-05T12:23:29.828Z,46.00
2018-09-05T12:25:09.124Z,43.25
2018-09-05T12:26:49.033Z,61.50
2018-09-05T12:28:28.921Z,47.50
2018-09-05T12:30:09.628Z,45.25
2018-09-05T12:31:52.608Z,46.25
2018-09-05T12:33:33.579Z,46.00
2018-09-05T12:35:11.654Z,48.50
2018-09-05T12:36:46.925Z,50.75
2018-09-05T12:38:22.250Z,49.00
2018-09-05T12:39:58.856Z,44.25
2018-09-05T12:41:34.822Z,41.00
2018-09-05T12:43:16.760Z,39.75
2018-09-05T12:44:52.766Z,43.75
2018-09-05T12:46:33.792Z,41.25
2018-09-05T12:48:10.295Z,44.25
2018-09-05T12:49:51.475Z,41.75
2018-09-05T12:51:32.303Z,48.25
2018-09-05T12:53:28.572Z,41.00
2018-09-05T12:55:37.939Z,44.25
2018-09-05T12:57:46.157Z,48.25
2018-09-05T12:59:40.364Z,45.25
2018-09-05T13:01:33.364Z,44.75
2018-09-05T13:03:13.487Z,43.75
2018-09-05T13:04:49.405Z,43.75
2018-09-05T13:06:46.275Z,42.25
2018-09-05T13:08:35.106Z,46.00
2018-09-05T13:10:24.350Z,39.25
2018-09-05T13:12:02.843Z,44.50
2018-09-05T13:13:46.695Z,38.75
2018-09-05T13:15:26.179Z,42.25
2018-09-05T13:17:03.832Z,40.50
2018-09-05T13:18:46.451Z,46.50
2018-09-05T13:20:31.699Z,46.00
2018-09-05T13:22:09.021Z,47.75
2018-09-05T13:23:51.435Z,44.25
2018-09-05T13:25:33.408Z,41.25
2018-09-05T13:27:27.297Z,40.00
2018-09-05T13:29:07.766Z,42.25
2018-09-05T13:30:48.860Z,42.25
2018-09-05T13:32:25.271Z,38.50
2018-09-05T13:34:03.753Z,37.75
2018-09-05T13:35:39.580Z,44.25
2018-09-05T13:37:27.519Z,45.50
2018-09-05T13:39:17.375Z,39.50
2018-09-05T13:41:08.883Z,43.25
2018-09-05T13:42:46.401Z,44.50
2018-09-05T13:44:24.744Z,44.25
2018-09-05T13:50:04.023Z,46.25
2018-09-05T13:51:43.611Z,45.25
2018-09-05T13:53:20.552Z,43.00
2018-09-05T13:54:57.014Z,40.75
2018-09-05T13:58:34.484Z,40.50
2018-09-05T14:00:17.252Z,40.25
2018-09-05T14:01:58.803Z,42.50
2018-09-05T14:03:36.106Z,36.75
2018-09-05T14:05:14.615Z,37.75
2018-09-05T14:06:53.522Z,41.50
2018-09-05T14:08:32.732Z,48.50
2018-09-05T14:10:13.073Z,42.50
2018-09-05T14:11:58.478Z,43.25
2018-09-05T14:13:44.903Z,47.25
2018-09-05T14:15:55.077Z,41.75
2018-09-05T14:17:37.981Z,45.75
2018-09-05T14:19:23.237Z,43.50
2018-09-05T14:21:01.572Z,41.25
2018-09-05T14:22:39.656Z,40.00
2018-09-05T14:24:20.203Z,46.25
2018-09-05T14:26:02.328Z,41.50
2018-09-05T14:27:44.465Z,37.25
2018-09-05T14:29:21.655Z,44.50
2018-09-05T14:31:08.628Z,43.75
2018-09-05T14:32:47.880Z,37.75
2018-09-05T14:34:30.530Z,38.50
2018-09-05T14:36:08.136Z,37.25
2018-09-05T14:37:46.712Z,40.50
2018-09-05T14:39:24.009Z,38.25
2018-09-05T14:41:01.742Z,39.00
2018-09-05T14:42:38.624Z,41.50
2018-09-05T14:44:22.634Z,32.25
2018-09-05T14:46:00.664Z,38.50
2018-09-05T14:47:41.024Z,41.50
2018-09-05T14:49:20.500Z,36.25
2018-09-05T14:51:05.599Z,37.00
2018-09-05T14:52:47.678Z,38.50
2018-09-05T14:54:27.692Z,33.00
2018-09-05T14:56:12.254Z,37.50
2018-09-05T14:57:48.693Z,36.00
2018-09-05T14:59:26.421Z,37.00
2018-09-05T15:01:04.415Z,38.25
2018-09-05T15:02:42.801Z,34.00
2018-09-05T15:04:21.315Z,33.50
2018-09-05T15:06:00.765Z,33.25
2018-09-05T15:07:37.470Z,34.00
2018-09-05T15:09:26.893Z,33.25
2018-09-05T15:11:04.513Z,29.75
2018-09-05T15:12:40.549Z,35.00
2018-09-05T15:14:25.797Z,31.75
2018-09-05T15:16:05.630Z,38.00
2018-09-05T15:17:45.702Z,35.00
2018-09-05T15:19:24.160Z,33.25
2018-09-05T15:20:59.606Z,36.50
2018-09-05T15:22:49.660Z,36.50
2018-09-05T15:24:48.485Z,39.50
2018-09-05T15:26:39.123Z,38.00
2018-09-05T15:28:31.770Z,42.25
2018-09-05T15:31:58.529Z,41.50
2018-09-05T15:33:35.475Z,39.00
2018-09-05T15:35:15.835Z,43.25
2018-09-05T15:37:00.674Z,39.50
2018-09-05T15:38:39.900Z,39.25
2018-09-05T15:40:26.145Z,43.25
2018-09-05T15:42:03.936Z,37.75
2018-09-05T15:43:41.754Z,36.50
2018-09-05T15:45:31.558Z,39.25
2018-09-05T15:47:19.061Z,44.00
2018-09-05T15:49:06.638Z,41.50
2018-09-05T15:50:44.646Z,43.25
2018-09-05T15:52:34.952Z,44.25
2018-09-05T15:54:28.998Z,47.25
2018-09-05T15:56:17.086Z,43.50
2018-09-05T15:57:56.008Z,46.50
2018-09-05T15:59:34.788Z,46.75
2018-09-05T16:01:16.831Z,39.50
2018-09-05T16:02:55.194Z,41.25
2018-09-05T16:04:34.577Z,42.75
2018-09-05T16:06:11.359Z,38.00
2018-09-05T16:07:49.754Z,39.75
2018-09-05T16:09:34.200Z,35.50
2018-09-05T16:11:13.513Z,40.50
2018-09-05T16:12:56.055Z,40.75
2018-09-05T16:14:33.986Z,46.25
2018-09-05T16:16:14.797Z,41.00
2018-09-05T16:17:52.256Z,35.00
2018-09-05T16:19:31.826Z,37.25
2018-09-05T16:21:08.698Z,39.25
2018-09-05T16:22:45.001Z,38.00
2018-09-05T16:24:30.322Z,34.75
2018-09-05T16:26:06.859Z,35.75
2018-09-05T16:27:44.201Z,36.25
2018-09-05T16:29:27.706Z,41.50
2018-09-05T16:31:07.600Z,39.25
2018-09-05T16:32:43.539Z,38.25
2018-09-05T16:34:20.291Z,42.00
2018-09-05T16:35:59.505Z,32.75
2018-09-05T16:37:37.724Z,38.25
2018-09-05T16:39:16.574Z,38.25
2018-09-05T16:40:53.593Z,38.00
2018-09-05T16:42:30.569Z,35.00
2018-09-05T16:44:14.614Z,35.00
2018-09-05T16:45:55.475Z,39.50
2018-09-05T16:47:43.670Z,36.50
2018-09-05T16:49:22.710Z,36.00
2018-09-05T16:50:58.685Z,35.75
2018-09-05T16:52:36.344Z,38.00
2018-09-05T16:54:15.315Z,35.25
2018-09-05T16:55:56.718Z,35.25
2018-09-05T16:57:33.463Z,37.00
2018-09-05T16:59:09.637Z,38.50
2018-09-05T17:00:47.647Z,34.75
2018-09-05T17:02:27.767Z,36.75
2018-09-05T17:04:09.725Z,32.25
2018-09-05T17:05:50.618Z,37.00
2018-09-05T17:07:30.754Z,34.00
2018-09-05T17:09:15.275Z,32.75
2018-09-05T17:10:52.553Z,33.00
2018-09-05T17:12:30.942Z,31.00
2018-09-05T17:14:10.479Z,30.00
2018-09-05T17:15:52.490Z,34.75
2018-09-05T17:17:34.073Z,31.50
2018-09-05T17:19:11.604Z,28.00
2018-09-05T17:20:50.898Z,33.25
2018-09-05T17:22:37.085Z,34.50
2018-09-05T17:24:39.331Z,32.75
2018-09-05T17:26:30.859Z,34.75
2018-09-05T17:28:21.253Z,36.75
2018-09-05T17:29:58.148Z,32.50
2018-09-05T17:31:44.140Z,29.75
2018-09-05T17:33:22.853Z,29.25
2018-09-05T17:35:00.756Z,32.25
2018-09-05T17:36:40.285Z,31.50
2018-09-05T17:38:24.457Z,31.50
2018-09-05T17:40:06.445Z,33.00
2018-09-05T17:41:45.211Z,35.00
2018-09-05T17:43:23.136Z,34.50
2018-09-05T17:45:03.100Z,30.00
2018-09-05T17:46:41.336Z,29.25
2018-09-05T17:48:20.001Z,29.50
2018-09-05T17:49:59.769Z,31.75
2018-09-05T17:51:37.371Z,31.50
2018-09-05T17:53:23.502Z,31.00
2018-09-05T18:00:17.499Z,29.25
2018-09-05T18:02:09.117Z,29.75
2018-09-05T18:03:52.251Z,31.00
2018-09-05T18:05:29.459Z,34.75
2018-09-05T18:07:12.181Z,28.00
2018-09-05T18:08:54.560Z,33.75
2018-09-05T18:10:41.938Z,30.00
2018-09-05T18:12:32.192Z,29.75
2018-09-05T18:14:20.156Z,26.50
2018-09-05T18:16:22.057Z,27.50
2018-09-05T18:18:45.793Z,26.75
2018-09-05T18:20:43.614Z,31.75
2018-09-05T18:22:23.328Z,32.50
2018-09-05T18:24:08.078Z,33.25
2018-09-05T18:25:51.951Z,30.25
2018-09-05T18:27:34.475Z,30.25
2018-09-05T18:29:28.217Z,25.00
2018-09-05T18:31:12.306Z,27.00
2018-09-05T18:32:54.516Z,26.50
2018-09-05T18:34:36.357Z,26.50
2018-09-05T18:38:05.521Z,32.50
2018-09-05T18:39:48.674Z,35.50
2018-09-05T18:41:27.161Z,36.00
2018-09-05T18:43:03.107Z,31.25
2018-09-05T18:44:40.483Z,32.00
2018-09-05T18:46:21.507Z,30.75
2018-09-05T18:48:03.831Z,35.25
2018-09-05T18:49:39.176Z,44.75
2018-09-05T18:56:29.951Z,30.75
2018-09-05T18:58:08.661Z,38.25
2018-09-05T18:59:56.008Z,35.50
2018-09-05T19:01:45.202Z,32.00
2018-09-05T19:03:40.235Z,26.75
2018-09-05T19:05:26.103Z,30.00
2018-09-05T19:07:11.020Z,32.00
2018-09-05T19:08:54.626Z,33.75
2018-09-05T19:10:33.181Z,31.00
2018-09-05T19:12:19.997Z,40.25
2018-09-05T19:14:00.413Z,28.00
2018-09-05T19:15:51.651Z,31.75
2018-09-05T19:17:31.560Z,31.00
2018-09-05T19:19:18.558Z,32.25
2018-09-05T19:21:02.481Z,33.50
2018-09-05T19:22:45.771Z,35.00
2018-09-05T19:24:26.735Z,32.50
2018-09-05T19:26:09.286Z,35.25
2018-09-05T19:27:49.516Z,29.00
2018-09-05T19:29:30.385Z,53.75
2018-09-05T19:31:18.849Z,31.75
2018-09-05T19:33:02.225Z,29.75
2018-09-05T19:34:43.490Z,30.50
2018-09-05T19:36:22.330Z,29.00
2018-09-05T19:38:04.146Z,34.00
2018-09-05T19:40:01.331Z,58.75
2018-09-05T19:41:44.909Z,48.75
2018-09-05T19:43:25.575Z,44.00
2018-09-05T19:45:08.479Z,46.75
2018-09-05T19:46:46.970Z,44.25
2018-09-05T19:48:22.619Z,43.00
2018-09-05T19:50:14.712Z,38.25
2018-09-05T19:53:37.619Z,45.50
2018-09-05T19:55:26.473Z,44.00
2018-09-05T19:57:14.927Z,41.00
2018-09-05T19:58:54.418Z,49.25
2018-09-05T20:00:34.710Z,36.00
2018-09-05T20:02:17.651Z,40.00
2018-09-05T20:03:56.501Z,36.00
2018-09-05T20:05:41.015Z,35.00
2018-09-05T20:07:20.253Z,38.00
2018-09-05T20:09:06.866Z,42.75
2018-09-05T20:10:54.639Z,38.50
2018-09-05T20:12:46.105Z,35.25
2018-09-05T20:14:26.759Z,39.50
2018-09-05T20:16:09.776Z,36.25
2018-09-05T20:17:47.387Z,38.00
2018-09-05T20:19:26.539Z,40.25
2018-09-05T20:21:04.171Z,45.75
2018-09-05T20:22:40.878Z,42.00
2018-09-05T20:24:17.440Z,34.00
2018-09-05T20:25:53.853Z,38.50
2018-09-05T20:27:31.942Z,42.00
2018-09-05T20:29:08.233Z,39.50
2018-09-05T20:30:45.771Z,42.50
2018-09-05T20:32:25.772Z,37.00
2018-09-05T20:34:03.506Z,36.50
2018-09-05T20:35:41.213Z,40.50
2018-09-05T20:37:17.642Z,35.25
2018-09-05T20:38:57.364Z,37.50
2018-09-05T20:40:39.036Z,45.00
2018-09-05T20:42:20.631Z,153.75
2018-09-05T20:43:58.517Z,54.00
2018-09-05T20:45:35.961Z,90.50
2018-09-05T20:47:12.721Z,37.50
2018-09-05T20:48:48.349Z,35.25
2018-09-05T20:50:24.366Z,45.50
2018-09-05T20:52:01.339Z,33.75
2018-09-05T20:53:40.241Z,39.00
2018-09-05T20:55:25.277Z,35.00
2018-09-05T20:57:14.336Z,33.50
2018-09-05T20:58:58.559Z,33.50
2018-09-05T21:00:36.603Z,34.00
2018-09-05T21:02:12.793Z,35.25
2018-09-05T21:03:51.441Z,37.00
2018-09-05T21:05:29.772Z,36.50
2018-09-05T21:07:07.672Z,32.00
2018-09-05T21:08:46.177Z,35.75
2018-09-05T21:10:21.590Z,40.75
2018-09-05T21:11:59.740Z,33.75
2018-09-05T21:13:37.481Z,35.25
2018-09-05T21:15:16.392Z,34.00
2018-09-05T21:16:52.555Z,38.50
2018-09-05T21:18:27.854Z,34.50
2018-09-05T21:20:08.480Z,39.00
2018-09-05T21:21:44.468Z,35.50
2018-09-05T21:23:26.961Z,46.25
2018-09-05T21:25:06.005Z,46.00
2018-09-05T21:26:42.198Z,30.25
2018-09-05T21:28:20.631Z,32.00
2018-09-05T21:29:55.960Z,29.50
2018-09-05T21:31:32.087Z,31.00
2018-09-05T21:33:10.735Z,31.75
2018-09-05T21:34:47.033Z,28.75
2018-09-05T21:36:23.736Z,26.75
2018-09-05T21:37:59.087Z,36.50
2018-09-05T21:39:36.471Z,35.25
2018-09-05T21:41:14.325Z,27.50
2018-09-05T21:42:50.949Z,39.50
2018-09-05T21:44:27.061Z,31.75